sensor_id;sensor_type;location;lat;lon;timestamp;P1;durP1;ratioP1;P2;durP2;ratioP2
35675;SDS011;21790;42.668;23.298;2023-12-20T00:01:19;87.15;;;38.10;;
35675;SDS011;21790;42.668;23.298;2023-12-20T00:03:44;85.05;;;39.00;;
35675;SDS011;21790;42.668;23.298;2023-12-20T00:06:10;78.97;;;36.55;;
35675;SDS011;21790;42.668;23.298;2023-12-20T00:08:36;81.63;;;37.58;;
35675;SDS011;21790;42.668;23.298;2023-12-20T01:43:10;77.20;;;35.08;;
35675;SDS011;21790;42.668;23.298;2023-12-20T01:45:39;69.47;;;34.53;;
35675;SDS011;21790;42.668;23.298;2023-12-20T01:48:05;66.30;;;32.75;;
35675;SDS011;21790;42.668;23.298;2023-12-20T01:50:32;60.22;;;30.05;;
35675;SDS011;21790;42.668;23.298;2023-12-20T01:53:00;69.13;;;30.55;;
35675;SDS011;21790;42.668;23.298;2023-12-20T01:55:27;61.38;;;29.83;;
35675;SDS011;21790;42.668;23.298;2023-12-20T01:57:56;55.78;;;28.67;;
35675;SDS011;21790;42.668;23.298;2023-12-20T02:00:23;55.58;;;27.90;;
35675;SDS011;21790;42.668;23.298;2023-12-20T02:02:52;61.15;;;26.65;;
35675;SDS011;21790;42.668;23.298;2023-12-20T02:05:18;49.45;;;25.58;;
35675;SDS011;21790;42.668;23.298;2023-12-20T02:07:44;46.83;;;24.00;;
35675;SDS011;21790;42.668;23.298;2023-12-20T02:10:10;51.03;;;23.63;;
35675;SDS011;21790;42.668;23.298;2023-12-20T02:12:36;50.95;;;23.88;;
35675;SDS011;21790;42.668;23.298;2023-12-20T02:15:02;52.45;;;26.05;;
35675;SDS011;21790;42.668;23.298;2023-12-20T02:17:29;59.03;;;28.10;;
35675;SDS011;21790;42.668;23.298;2023-12-20T04:50:39;70.50;;;35.50;;
35675;SDS011;21790;42.668;23.298;2023-12-20T08:22:00;210.88;;;83.15;;
35675;SDS011;21790;42.668;23.298;2023-12-20T08:24:26;202.43;;;80.10;;
35675;SDS011;21790;42.668;23.298;2023-12-20T08:26:52;206.70;;;83.50;;
35675;SDS011;21790;42.668;23.298;2023-12-20T08:31:43;206.27;;;83.78;;
35675;SDS011;21790;42.668;23.298;2023-12-20T08:34:08;193.32;;;76.93;;
35675;SDS011;21790;42.668;23.298;2023-12-20T08:36:34;190.30;;;78.47;;
35675;SDS011;21790;42.668;23.298;2023-12-20T08:38:59;191.35;;;79.43;;
35675;SDS011;21790;42.668;23.298;2023-12-20T08:41:25;187.40;;;77.18;;
35675;SDS011;21790;42.668;23.298;2023-12-20T08:43:51;184.25;;;80.75;;
35675;SDS011;21790;42.668;23.298;2023-12-20T08:46:16;196.50;;;78.93;;
35675;SDS011;21790;42.668;23.298;2023-12-20T08:48:42;196.73;;;79.97;;
35675;SDS011;21790;42.668;23.298;2023-12-20T08:51:07;176.10;;;76.32;;
35675;SDS011;21790;42.668;23.298;2023-12-20T08:53:33;184.95;;;80.63;;
35675;SDS011;21790;42.668;23.298;2023-12-20T08:55:59;185.57;;;80.53;;
35675;SDS011;21790;42.668;23.298;2023-12-20T08:58:26;197.55;;;80.68;;
35675;SDS011;21790;42.668;23.298;2023-12-20T09:00:52;187.48;;;81.18;;
35675;SDS011;21790;42.668;23.298;2023-12-20T09:03:18;180.38;;;79.35;;
35675;SDS011;21790;42.668;23.298;2023-12-20T09:05:43;197.50;;;82.13;;
35675;SDS011;21790;42.668;23.298;2023-12-20T09:08:09;189.02;;;82.32;;
35675;SDS011;21790;42.668;23.298;2023-12-20T09:10:35;183.75;;;81.65;;
35675;SDS011;21790;42.668;23.298;2023-12-20T09:13:02;189.65;;;85.55;;
35675;SDS011;21790;42.668;23.298;2023-12-20T09:15:29;184.38;;;82.05;;
35675;SDS011;21790;42.668;23.298;2023-12-20T09:17:55;196.50;;;83.93;;
35675;SDS011;21790;42.668;23.298;2023-12-20T09:20:20;192.77;;;84.30;;
35675;SDS011;21790;42.668;23.298;2023-12-20T09:22:48;183.93;;;80.03;;
35675;SDS011;21790;42.668;23.298;2023-12-20T09:25:14;184.07;;;82.78;;
35675;SDS011;21790;42.668;23.298;2023-12-20T09:27:41;180.80;;;82.78;;
35675;SDS011;21790;42.668;23.298;2023-12-20T09:30:06;186.30;;;81.87;;
35675;SDS011;21790;42.668;23.298;2023-12-20T09:32:32;187.00;;;82.18;;
35675;SDS011;21790;42.668;23.298;2023-12-20T09:34:58;183.87;;;83.60;;
35675;SDS011;21790;42.668;23.298;2023-12-20T09:37:26;187.40;;;84.00;;
35675;SDS011;21790;42.668;23.298;2023-12-20T09:39:53;181.23;;;81.55;;
35675;SDS011;21790;42.668;23.298;2023-12-20T09:42:21;178.07;;;80.00;;
35675;SDS011;21790;42.668;23.298;2023-12-20T09:44:58;180.57;;;80.63;;
35675;SDS011;21790;42.668;23.298;2023-12-20T09:47:28;179.07;;;79.63;;
35675;SDS011;21790;42.668;23.298;2023-12-20T09:49:54;184.73;;;80.55;;
35675;SDS011;21790;42.668;23.298;2023-12-20T09:52:20;174.75;;;78.75;;
35675;SDS011;21790;42.668;23.298;2023-12-20T09:54:49;177.30;;;81.57;;
35675;SDS011;21790;42.668;23.298;2023-12-20T09:57:17;174.90;;;78.95;;
35675;SDS011;21790;42.668;23.298;2023-12-20T09:59:43;185.45;;;82.57;;
35675;SDS011;21790;42.668;23.298;2023-12-20T10:02:09;165.60;;;76.80;;
35675;SDS011;21790;42.668;23.298;2023-12-20T10:04:40;167.05;;;80.10;;
35675;SDS011;21790;42.668;23.298;2023-12-20T10:07:15;161.63;;;78.88;;
35675;SDS011;21790;42.668;23.298;2023-12-20T10:09:41;165.82;;;77.78;;
35675;SDS011;21790;42.668;23.298;2023-12-20T10:12:08;169.52;;;78.97;;
35675;SDS011;21790;42.668;23.298;2023-12-20T10:14:34;155.93;;;73.55;;
35675;SDS011;21790;42.668;23.298;2023-12-20T13:28:01;157.95;;;69.70;;
35675;SDS011;21790;42.668;23.298;2023-12-20T13:30:28;163.47;;;71.00;;
35675;SDS011;21790;42.668;23.298;2023-12-20T13:32:54;166.95;;;73.13;;
35675;SDS011;21790;42.668;23.298;2023-12-20T13:35:21;168.30;;;72.25;;
35675;SDS011;21790;42.668;23.298;2023-12-20T13:37:47;163.00;;;70.63;;
35675;SDS011;21790;42.668;23.298;2023-12-20T13:40:12;174.52;;;72.18;;
35675;SDS011;21790;42.668;23.298;2023-12-20T13:42:38;174.77;;;70.28;;
35675;SDS011;21790;42.668;23.298;2023-12-20T13:45:05;158.70;;;70.07;;
35675;SDS011;21790;42.668;23.298;2023-12-20T13:47:31;172.32;;;69.95;;
35675;SDS011;21790;42.668;23.298;2023-12-20T13:49:57;160.18;;;69.65;;
35675;SDS011;21790;42.668;23.298;2023-12-20T13:52:23;166.82;;;71.70;;
35675;SDS011;21790;42.668;23.298;2023-12-20T13:54:48;167.45;;;72.00;;
35675;SDS011;21790;42.668;23.298;2023-12-20T13:57:15;165.13;;;67.68;;
35675;SDS011;21790;42.668;23.298;2023-12-20T13:59:41;161.43;;;69.97;;
35675;SDS011;21790;42.668;23.298;2023-12-20T14:02:06;165.27;;;70.07;;
35675;SDS011;21790;42.668;23.298;2023-12-20T14:04:32;163.30;;;71.47;;
35675;SDS011;21790;42.668;23.298;2023-12-20T14:06:58;175.88;;;71.85;;
35675;SDS011;21790;42.668;23.298;2023-12-20T14:09:23;188.10;;;74.60;;
35675;SDS011;21790;42.668;23.298;2023-12-20T14:11:49;184.75;;;73.28;;
35675;SDS011;21790;42.668;23.298;2023-12-20T14:14:15;186.85;;;77.82;;
35675;SDS011;21790;42.668;23.298;2023-12-20T14:16:40;184.02;;;75.05;;
35675;SDS011;21790;42.668;23.298;2023-12-20T14:19:07;191.98;;;75.28;;
35675;SDS011;21790;42.668;23.298;2023-12-20T14:21:34;188.60;;;76.35;;
35675;SDS011;21790;42.668;23.298;2023-12-20T14:24:00;198.80;;;80.85;;
35675;SDS011;21790;42.668;23.298;2023-12-20T14:26:25;175.98;;;73.85;;
35675;SDS011;21790;42.668;23.298;2023-12-20T14:28:52;171.25;;;72.75;;
35675;SDS011;21790;42.668;23.298;2023-12-20T14:31:18;182.85;;;76.18;;
35675;SDS011;21790;42.668;23.298;2023-12-20T14:33:44;186.75;;;78.13;;
35675;SDS011;21790;42.668;23.298;2023-12-20T14:36:11;182.10;;;78.60;;
35675;SDS011;21790;42.668;23.298;2023-12-20T14:38:36;180.60;;;77.90;;
35675;SDS011;21790;42.668;23.298;2023-12-20T14:41:03;189.75;;;79.05;;
35675;SDS011;21790;42.668;23.298;2023-12-20T14:43:30;190.27;;;80.47;;
35675;SDS011;21790;42.668;23.298;2023-12-20T14:45:57;181.30;;;78.85;;
35675;SDS011;21790;42.668;23.298;2023-12-20T14:48:23;185.75;;;79.60;;
35675;SDS011;21790;42.668;23.298;2023-12-20T14:50:50;195.60;;;81.55;;
35675;SDS011;21790;42.668;23.298;2023-12-20T14:53:17;201.85;;;85.43;;
35675;SDS011;21790;42.668;23.298;2023-12-20T14:55:43;207.02;;;87.05;;
35675;SDS011;21790;42.668;23.298;2023-12-20T14:58:09;215.15;;;89.80;;
35675;SDS011;21790;42.668;23.298;2023-12-20T15:00:35;235.10;;;99.65;;
35675;SDS011;21790;42.668;23.298;2023-12-20T15:03:02;241.07;;;104.95;;
35675;SDS011;21790;42.668;23.298;2023-12-20T15:05:29;275.77;;;119.43;;
35675;SDS011;21790;42.668;23.298;2023-12-20T15:07:55;293.60;;;124.20;;
35675;SDS011;21790;42.668;23.298;2023-12-20T15:10:21;285.35;;;122.75;;
35675;SDS011;21790;42.668;23.298;2023-12-20T15:12:50;278.58;;;121.53;;
35675;SDS011;21790;42.668;23.298;2023-12-20T15:15:15;283.63;;;120.07;;
35675;SDS011;21790;42.668;23.298;2023-12-20T15:17:41;286.40;;;123.03;;
35675;SDS011;21790;42.668;23.298;2023-12-20T15:20:06;281.63;;;121.05;;
35675;SDS011;21790;42.668;23.298;2023-12-20T15:22:35;259.67;;;107.05;;
35675;SDS011;21790;42.668;23.298;2023-12-20T15:25:04;285.55;;;123.63;;
35675;SDS011;21790;42.668;23.298;2023-12-20T15:27:33;290.42;;;120.38;;
35675;SDS011;21790;42.668;23.298;2023-12-20T15:30:00;286.15;;;122.20;;
35675;SDS011;21790;42.668;23.298;2023-12-20T15:32:26;280.90;;;121.93;;
35675;SDS011;21790;42.668;23.298;2023-12-20T15:34:51;287.40;;;124.20;;
35675;SDS011;21790;42.668;23.298;2023-12-20T15:37:21;289.70;;;119.97;;
35675;SDS011;21790;42.668;23.298;2023-12-20T15:39:46;296.75;;;123.20;;
35675;SDS011;21790;42.668;23.298;2023-12-20T15:42:12;280.67;;;123.78;;
35675;SDS011;21790;42.668;23.298;2023-12-20T15:44:37;293.63;;;121.82;;
35675;SDS011;21790;42.668;23.298;2023-12-20T15:47:04;292.52;;;125.85;;
35675;SDS011;21790;42.668;23.298;2023-12-20T15:49:33;283.90;;;120.50;;
35675;SDS011;21790;42.668;23.298;2023-12-20T15:51:58;303.40;;;124.43;;
35675;SDS011;21790;42.668;23.298;2023-12-20T15:54:23;290.63;;;120.20;;
35675;SDS011;21790;42.668;23.298;2023-12-20T15:56:50;290.70;;;124.32;;
35675;SDS011;21790;42.668;23.298;2023-12-20T15:59:15;278.65;;;116.53;;
35675;SDS011;21790;42.668;23.298;2023-12-20T16:01:40;255.95;;;106.32;;
35675;SDS011;21790;42.668;23.298;2023-12-20T16:04:06;260.23;;;103.38;;
35675;SDS011;21790;42.668;23.298;2023-12-20T16:06:31;246.93;;;105.03;;
35675;SDS011;21790;42.668;23.298;2023-12-20T16:08:57;262.63;;;111.07;;
35675;SDS011;21790;42.668;23.298;2023-12-20T16:11:22;249.68;;;105.57;;
35675;SDS011;21790;42.668;23.298;2023-12-20T16:13:48;254.45;;;104.45;;
35675;SDS011;21790;42.668;23.298;2023-12-20T16:16:15;259.70;;;108.50;;
35675;SDS011;21790;42.668;23.298;2023-12-20T16:18:41;257.73;;;108.70;;
35675;SDS011;21790;42.668;23.298;2023-12-20T16:21:06;250.27;;;108.78;;
35675;SDS011;21790;42.668;23.298;2023-12-20T16:23:32;255.73;;;106.65;;
35675;SDS011;21790;42.668;23.298;2023-12-20T16:25:57;247.48;;;106.50;;
35675;SDS011;21790;42.668;23.298;2023-12-20T16:28:23;260.77;;;110.57;;
35675;SDS011;21790;42.668;23.298;2023-12-20T16:30:50;275.63;;;112.53;;
35675;SDS011;21790;42.668;23.298;2023-12-20T16:33:16;263.10;;;108.70;;
35675;SDS011;21790;42.668;23.298;2023-12-20T16:35:42;250.85;;;110.55;;
35675;SDS011;21790;42.668;23.298;2023-12-20T16:38:08;254.95;;;112.10;;
35675;SDS011;21790;42.668;23.298;2023-12-20T16:40:33;257.52;;;108.30;;
35675;SDS011;21790;42.668;23.298;2023-12-20T16:42:59;249.35;;;106.95;;
35675;SDS011;21790;42.668;23.298;2023-12-20T16:45:24;269.95;;;110.10;;
35675;SDS011;21790;42.668;23.298;2023-12-20T16:47:49;246.70;;;108.85;;
35675;SDS011;21790;42.668;23.298;2023-12-20T16:50:15;256.75;;;108.82;;
35675;SDS011;21790;42.668;23.298;2023-12-20T16:52:41;250.20;;;107.90;;
35675;SDS011;21790;42.668;23.298;2023-12-20T16:55:10;255.48;;;108.72;;
35675;SDS011;21790;42.668;23.298;2023-12-20T16:57:39;264.20;;;107.53;;
35675;SDS011;21790;42.668;23.298;2023-12-20T17:00:05;256.98;;;108.38;;
35675;SDS011;21790;42.668;23.298;2023-12-20T17:02:32;256.48;;;109.43;;
35675;SDS011;21790;42.668;23.298;2023-12-20T17:04:58;256.60;;;109.68;;
35675;SDS011;21790;42.668;23.298;2023-12-20T17:07:24;258.38;;;108.35;;
35675;SDS011;21790;42.668;23.298;2023-12-20T17:09:50;265.52;;;110.97;;
35675;SDS011;21790;42.668;23.298;2023-12-20T17:12:16;261.13;;;108.78;;
35675;SDS011;21790;42.668;23.298;2023-12-20T17:14:42;260.98;;;109.82;;
35675;SDS011;21790;42.668;23.298;2023-12-20T17:17:07;264.60;;;110.67;;
35675;SDS011;21790;42.668;23.298;2023-12-20T17:19:33;252.48;;;108.95;;
35675;SDS011;21790;42.668;23.298;2023-12-20T17:21:59;261.48;;;112.45;;
35675;SDS011;21790;42.668;23.298;2023-12-20T17:24:25;258.15;;;108.22;;
35675;SDS011;21790;42.668;23.298;2023-12-20T17:26:52;269.38;;;113.18;;
35675;SDS011;21790;42.668;23.298;2023-12-20T17:29:18;254.88;;;109.18;;
35675;SDS011;21790;42.668;23.298;2023-12-20T17:31:44;253.70;;;108.80;;
35675;SDS011;21790;42.668;23.298;2023-12-20T17:34:10;249.70;;;109.55;;
35675;SDS011;21790;42.668;23.298;2023-12-20T17:36:39;268.52;;;112.25;;
35675;SDS011;21790;42.668;23.298;2023-12-20T17:39:06;287.00;;;122.07;;
35675;SDS011;21790;42.668;23.298;2023-12-20T17:41:32;235.75;;;101.15;;
35675;SDS011;21790;42.668;23.298;2023-12-20T17:44:03;218.57;;;93.80;;
35675;SDS011;21790;42.668;23.298;2023-12-20T17:46:29;235.13;;;94.15;;
35675;SDS011;21790;42.668;23.298;2023-12-20T17:48:56;229.52;;;89.72;;
35675;SDS011;21790;42.668;23.298;2023-12-20T17:51:21;220.52;;;88.32;;
35675;SDS011;21790;42.668;23.298;2023-12-20T17:53:50;220.75;;;90.38;;
35675;SDS011;21790;42.668;23.298;2023-12-20T17:56:18;236.50;;;90.57;;
35675;SDS011;21790;42.668;23.298;2023-12-20T17:58:43;233.30;;;97.10;;
35675;SDS011;21790;42.668;23.298;2023-12-20T18:01:10;254.13;;;102.30;;
35675;SDS011;21790;42.668;23.298;2023-12-20T18:03:40;276.13;;;111.90;;
35675;SDS011;21790;42.668;23.298;2023-12-20T18:06:07;263.88;;;106.13;;
35675;SDS011;21790;42.668;23.298;2023-12-20T18:08:33;287.30;;;110.43;;
35675;SDS011;21790;42.668;23.298;2023-12-20T18:11:01;282.25;;;112.40;;
35675;SDS011;21790;42.668;23.298;2023-12-20T18:13:27;297.98;;;115.72;;
35675;SDS011;21790;42.668;23.298;2023-12-20T18:15:53;295.33;;;120.88;;
35675;SDS011;21790;42.668;23.298;2023-12-20T18:18:18;305.73;;;117.45;;
35675;SDS011;21790;42.668;23.298;2023-12-20T18:20:45;302.48;;;112.90;;
35675;SDS011;21790;42.668;23.298;2023-12-20T18:23:12;291.95;;;109.50;;
35675;SDS011;21790;42.668;23.298;2023-12-20T18:25:39;280.23;;;106.47;;
35675;SDS011;21790;42.668;23.298;2023-12-20T18:28:07;278.25;;;101.38;;
35675;SDS011;21790;42.668;23.298;2023-12-20T18:30:35;279.88;;;98.60;;
35675;SDS011;21790;42.668;23.298;2023-12-20T18:33:01;275.45;;;98.97;;
35675;SDS011;21790;42.668;23.298;2023-12-20T18:35:26;276.65;;;100.25;;
35675;SDS011;21790;42.668;23.298;2023-12-20T18:37:52;278.35;;;95.63;;
35675;SDS011;21790;42.668;23.298;2023-12-20T18:40:18;286.48;;;103.03;;
35675;SDS011;21790;42.668;23.298;2023-12-20T18:42:46;273.08;;;98.38;;
35675;SDS011;21790;42.668;23.298;2023-12-20T18:45:17;286.95;;;99.97;;
35675;SDS011;21790;42.668;23.298;2023-12-20T18:47:42;261.33;;;94.55;;
35675;SDS011;21790;42.668;23.298;2023-12-20T18:50:08;273.98;;;103.40;;
35675;SDS011;21790;42.668;23.298;2023-12-20T18:52:33;317.80;;;111.45;;
35675;SDS011;21790;42.668;23.298;2023-12-20T18:54:59;308.90;;;110.93;;
35675;SDS011;21790;42.668;23.298;2023-12-20T18:57:24;306.27;;;114.20;;
35675;SDS011;21790;42.668;23.298;2023-12-20T18:59:50;308.65;;;109.55;;
35675;SDS011;21790;42.668;23.298;2023-12-20T19:02:15;300.17;;;107.90;;
35675;SDS011;21790;42.668;23.298;2023-12-20T19:04:40;278.20;;;104.07;;
35675;SDS011;21790;42.668;23.298;2023-12-20T19:07:07;280.05;;;104.47;;
35675;SDS011;21790;42.668;23.298;2023-12-20T19:09:36;279.55;;;103.68;;
35675;SDS011;21790;42.668;23.298;2023-12-20T19:12:04;271.58;;;105.18;;
35675;SDS011;21790;42.668;23.298;2023-12-20T19:14:30;284.65;;;106.18;;
35675;SDS011;21790;42.668;23.298;2023-12-20T19:16:56;270.88;;;103.07;;
35675;SDS011;21790;42.668;23.298;2023-12-20T19:19:28;279.67;;;105.90;;
35675;SDS011;21790;42.668;23.298;2023-12-20T19:21:54;286.38;;;108.78;;
35675;SDS011;21790;42.668;23.298;2023-12-20T19:24:20;279.42;;;103.00;;
35675;SDS011;21790;42.668;23.298;2023-12-20T19:26:45;296.20;;;110.10;;
35675;SDS011;21790;42.668;23.298;2023-12-20T19:29:14;277.58;;;105.65;;
35675;SDS011;21790;42.668;23.298;2023-12-20T19:31:40;273.95;;;105.65;;
35675;SDS011;21790;42.668;23.298;2023-12-20T19:34:05;260.98;;;101.28;;
35675;SDS011;21790;42.668;23.298;2023-12-20T19:36:31;257.55;;;100.50;;
35675;SDS011;21790;42.668;23.298;2023-12-20T19:38:56;258.98;;;100.57;;
35675;SDS011;21790;42.668;23.298;2023-12-20T19:41:22;250.88;;;101.93;;
35675;SDS011;21790;42.668;23.298;2023-12-20T19:43:47;249.00;;;96.60;;
35675;SDS011;21790;42.668;23.298;2023-12-20T19:46:13;235.35;;;95.70;;
35675;SDS011;21790;42.668;23.298;2023-12-20T19:48:39;243.27;;;95.40;;
35675;SDS011;21790;42.668;23.298;2023-12-20T19:51:04;233.50;;;95.03;;
35675;SDS011;21790;42.668;23.298;2023-12-20T19:53:30;237.68;;;94.60;;
35675;SDS011;21790;42.668;23.298;2023-12-20T19:55:58;236.25;;;94.38;;
35675;SDS011;21790;42.668;23.298;2023-12-20T19:58:26;231.95;;;94.60;;
35675;SDS011;21790;42.668;23.298;2023-12-20T20:00:52;237.15;;;96.22;;
35675;SDS011;21790;42.668;23.298;2023-12-20T20:03:17;253.25;;;99.35;;
35675;SDS011;21790;42.668;23.298;2023-12-20T20:05:43;260.02;;;99.38;;
35675;SDS011;21790;42.668;23.298;2023-12-20T20:08:09;256.00;;;97.68;;
35675;SDS011;21790;42.668;23.298;2023-12-20T20:10:34;239.07;;;95.35;;
35675;SDS011;21790;42.668;23.298;2023-12-20T20:13:00;257.30;;;100.65;;
35675;SDS011;21790;42.668;23.298;2023-12-20T20:15:26;264.52;;;105.25;;
35675;SDS011;21790;42.668;23.298;2023-12-20T20:17:51;267.05;;;104.22;;
35675;SDS011;21790;42.668;23.298;2023-12-20T20:20:17;269.05;;;101.35;;
35675;SDS011;21790;42.668;23.298;2023-12-20T20:22:43;264.75;;;98.13;;
35675;SDS011;21790;42.668;23.298;2023-12-20T20:25:08;277.02;;;102.45;;
35675;SDS011;21790;42.668;23.298;2023-12-20T20:27:34;270.95;;;100.40;;
35675;SDS011;21790;42.668;23.298;2023-12-20T20:30:00;271.75;;;102.40;;
35675;SDS011;21790;42.668;23.298;2023-12-20T20:32:26;259.05;;;99.90;;
35675;SDS011;21790;42.668;23.298;2023-12-20T20:34:53;277.35;;;101.75;;
35675;SDS011;21790;42.668;23.298;2023-12-20T20:37:19;253.05;;;97.90;;
35675;SDS011;21790;42.668;23.298;2023-12-20T20:39:44;267.67;;;100.95;;
35675;SDS011;21790;42.668;23.298;2023-12-20T20:42:10;272.13;;;102.28;;
35675;SDS011;21790;42.668;23.298;2023-12-20T20:44:36;259.70;;;100.30;;
35675;SDS011;21790;42.668;23.298;2023-12-20T20:47:01;262.00;;;101.55;;
35675;SDS011;21790;42.668;23.298;2023-12-20T20:49:27;262.33;;;99.57;;
35675;SDS011;21790;42.668;23.298;2023-12-20T20:51:54;277.35;;;100.85;;
35675;SDS011;21790;42.668;23.298;2023-12-20T20:54:20;273.40;;;103.63;;
35675;SDS011;21790;42.668;23.298;2023-12-20T20:56:45;289.98;;;104.63;;
35675;SDS011;21790;42.668;23.298;2023-12-20T20:59:11;268.50;;;101.72;;
35675;SDS011;21790;42.668;23.298;2023-12-20T21:01:37;266.83;;;100.72;;
35675;SDS011;21790;42.668;23.298;2023-12-20T21:04:03;276.48;;;102.50;;
35675;SDS011;21790;42.668;23.298;2023-12-20T21:06:28;268.95;;;100.32;;
35675;SDS011;21790;42.668;23.298;2023-12-20T21:08:56;281.25;;;107.43;;
35675;SDS011;21790;42.668;23.298;2023-12-20T21:11:24;264.10;;;100.55;;
35675;SDS011;21790;42.668;23.298;2023-12-20T21:13:51;277.30;;;103.68;;
35675;SDS011;21790;42.668;23.298;2023-12-20T21:16:17;276.88;;;105.15;;
35675;SDS011;21790;42.668;23.298;2023-12-20T21:18:42;278.88;;;103.93;;
35675;SDS011;21790;42.668;23.298;2023-12-20T21:21:11;276.40;;;110.90;;
35675;SDS011;21790;42.668;23.298;2023-12-20T21:23:38;275.10;;;104.82;;
35675;SDS011;21790;42.668;23.298;2023-12-20T21:26:04;269.23;;;104.30;;
35675;SDS011;21790;42.668;23.298;2023-12-20T21:28:33;278.55;;;105.10;;
35675;SDS011;21790;42.668;23.298;2023-12-20T21:30:58;275.45;;;105.68;;
35675;SDS011;21790;42.668;23.298;2023-12-20T21:33:24;278.67;;;106.18;;
35675;SDS011;21790;42.668;23.298;2023-12-20T21:35:49;297.38;;;105.85;;
35675;SDS011;21790;42.668;23.298;2023-12-20T21:38:15;290.58;;;108.10;;
35675;SDS011;21790;42.668;23.298;2023-12-20T21:40:40;291.88;;;113.13;;
35675;SDS011;21790;42.668;23.298;2023-12-20T21:43:06;298.70;;;113.30;;
35675;SDS011;21790;42.668;23.298;2023-12-20T21:45:32;298.17;;;110.95;;
35675;SDS011;21790;42.668;23.298;2023-12-20T21:47:57;323.48;;;116.75;;
35675;SDS011;21790;42.668;23.298;2023-12-20T21:50:23;304.33;;;112.32;;
35675;SDS011;21790;42.668;23.298;2023-12-20T21:52:48;293.23;;;113.72;;
35675;SDS011;21790;42.668;23.298;2023-12-20T21:55:14;296.20;;;113.53;;
35675;SDS011;21790;42.668;23.298;2023-12-20T21:57:39;284.88;;;112.15;;
35675;SDS011;21790;42.668;23.298;2023-12-20T22:00:05;294.35;;;111.80;;
35675;SDS011;21790;42.668;23.298;2023-12-20T22:02:32;286.70;;;107.72;;
35675;SDS011;21790;42.668;23.298;2023-12-20T22:04:58;277.98;;;103.47;;
35675;SDS011;21790;42.668;23.298;2023-12-20T22:07:24;290.33;;;106.88;;
35675;SDS011;21790;42.668;23.298;2023-12-20T22:09:51;294.42;;;107.10;;
35675;SDS011;21790;42.668;23.298;2023-12-20T22:12:17;283.58;;;103.55;;
35675;SDS011;21790;42.668;23.298;2023-12-20T22:14:42;276.73;;;103.45;;
35675;SDS011;21790;42.668;23.298;2023-12-20T22:17:07;292.40;;;107.40;;
35675;SDS011;21790;42.668;23.298;2023-12-20T22:19:34;277.55;;;102.85;;
35675;SDS011;21790;42.668;23.298;2023-12-20T22:22:00;287.55;;;105.97;;
35675;SDS011;21790;42.668;23.298;2023-12-20T22:24:25;286.17;;;102.65;;
35675;SDS011;21790;42.668;23.298;2023-12-20T22:26:51;303.17;;;105.57;;
35675;SDS011;21790;42.668;23.298;2023-12-20T22:29:18;281.90;;;103.13;;
35675;SDS011;21790;42.668;23.298;2023-12-20T22:31:43;263.42;;;101.88;;
35675;SDS011;21790;42.668;23.298;2023-12-20T22:34:09;271.75;;;103.28;;
35675;SDS011;21790;42.668;23.298;2023-12-20T22:36:35;280.17;;;105.13;;
35675;SDS011;21790;42.668;23.298;2023-12-20T22:39:00;287.45;;;105.60;;
35675;SDS011;21790;42.668;23.298;2023-12-20T22:41:26;279.08;;;102.43;;
35675;SDS011;21790;42.668;23.298;2023-12-20T22:43:52;287.58;;;99.38;;
35675;SDS011;21790;42.668;23.298;2023-12-20T22:46:19;277.60;;;99.53;;
35675;SDS011;21790;42.668;23.298;2023-12-20T22:48:45;253.73;;;98.32;;
35675;SDS011;21790;42.668;23.298;2023-12-20T22:51:10;265.95;;;101.32;;
35675;SDS011;21790;42.668;23.298;2023-12-20T22:53:36;260.33;;;101.90;;
35675;SDS011;21790;42.668;23.298;2023-12-20T22:56:01;258.17;;;99.68;;
35675;SDS011;21790;42.668;23.298;2023-12-20T22:58:28;250.13;;;98.40;;
35675;SDS011;21790;42.668;23.298;2023-12-20T23:00:53;253.20;;;97.93;;
35675;SDS011;21790;42.668;23.298;2023-12-20T23:03:19;251.10;;;100.78;;
35675;SDS011;21790;42.668;23.298;2023-12-20T23:05:50;274.15;;;100.95;;
35675;SDS011;21790;42.668;23.298;2023-12-20T23:08:15;287.35;;;97.70;;
35675;SDS011;21790;42.668;23.298;2023-12-20T23:10:41;286.65;;;99.97;;
35675;SDS011;21790;42.668;23.298;2023-12-20T23:13:07;287.73;;;104.60;;
35675;SDS011;21790;42.668;23.298;2023-12-20T23:15:32;283.35;;;104.13;;
35675;SDS011;21790;42.668;23.298;2023-12-20T23:17:58;283.95;;;104.43;;
35675;SDS011;21790;42.668;23.298;2023-12-20T23:20:25;247.35;;;97.30;;
35675;SDS011;21790;42.668;23.298;2023-12-20T23:22:50;260.23;;;102.20;;
35675;SDS011;21790;42.668;23.298;2023-12-20T23:25:16;252.15;;;98.47;;
35675;SDS011;21790;42.668;23.298;2023-12-20T23:27:41;252.50;;;98.97;;
35675;SDS011;21790;42.668;23.298;2023-12-20T23:30:11;257.50;;;98.95;;
35675;SDS011;21790;42.668;23.298;2023-12-20T23:32:36;246.45;;;99.32;;
35675;SDS011;21790;42.668;23.298;2023-12-20T23:35:03;239.77;;;97.88;;
35675;SDS011;21790;42.668;23.298;2023-12-20T23:37:29;244.43;;;94.82;;
35675;SDS011;21790;42.668;23.298;2023-12-20T23:39:54;242.02;;;96.00;;
35675;SDS011;21790;42.668;23.298;2023-12-20T23:42:19;240.88;;;96.30;;
35675;SDS011;21790;42.668;23.298;2023-12-20T23:44:46;232.95;;;93.50;;
35675;SDS011;21790;42.668;23.298;2023-12-20T23:47:11;230.60;;;93.72;;
35675;SDS011;21790;42.668;23.298;2023-12-20T23:49:37;228.90;;;96.45;;
35675;SDS011;21790;42.668;23.298;2023-12-20T23:52:02;231.65;;;95.30;;
35675;SDS011;21790;42.668;23.298;2023-12-20T23:54:30;219.48;;;91.85;;
35675;SDS011;21790;42.668;23.298;2023-12-20T23:56:56;206.20;;;89.30;;
35675;SDS011;21790;42.668;23.298;2023-12-20T23:59:22;182.52;;;82.07;;
